createdAt,value
2019-03-26T00:02:04.441Z,7.00
2019-03-26T00:04:37.593Z,7.14
2019-03-26T00:07:08.602Z,6.91
2019-03-26T00:09:39.648Z,6.84
2019-03-26T00:12:10.580Z,6.92
2019-03-26T00:14:41.528Z,6.94
2019-03-26T00:17:12.403Z,6.86
2019-03-26T00:19:43.407Z,6.95
2019-03-26T00:22:14.512Z,6.79
2019-03-26T00:24:45.502Z,6.71
2019-03-26T00:27:16.416Z,6.75
2019-03-26T00:29:47.305Z,6.64
2019-03-26T00:32:18.178Z,6.76
2019-03-26T00:34:49.040Z,6.73
2019-03-26T00:37:20.121Z,6.74
2019-03-26T00:39:50.984Z,6.72
2019-03-26T00:42:21.928Z,6.68
2019-03-26T00:44:52.798Z,6.73
2019-03-26T00:47:23.828Z,6.74
2019-03-26T00:49:54.706Z,6.74
2019-03-26T00:52:25.705Z,6.62
2019-03-26T00:54:56.724Z,6.66
2019-03-26T00:57:27.710Z,6.66
2019-03-26T00:59:58.580Z,6.57
2019-03-26T01:02:29.580Z,6.53
2019-03-26T01:05:00.598Z,6.66
2019-03-26T01:07:31.723Z,6.66
2019-03-26T01:10:02.974Z,6.73
2019-03-26T01:12:34.017Z,6.73
2019-03-26T01:15:07.306Z,6.62
2019-03-26T01:17:38.328Z,6.62
2019-03-26T01:20:09.387Z,6.65
2019-03-26T01:22:40.523Z,6.80
2019-03-26T01:25:11.496Z,6.62
2019-03-26T01:27:43.451Z,6.66
2019-03-26T01:30:14.468Z,6.66
2019-03-26T01:32:46.466Z,6.66
2019-03-26T01:35:17.411Z,6.68
2019-03-26T01:37:48.407Z,6.71
2019-03-26T01:40:19.388Z,6.71
2019-03-26T01:42:51.455Z,6.74
2019-03-26T01:45:22.340Z,6.71
2019-03-26T01:47:53.332Z,6.70
2019-03-26T01:50:24.236Z,6.67
2019-03-26T01:52:55.318Z,6.71
2019-03-26T01:55:26.175Z,6.74
2019-03-26T01:57:57.182Z,6.58
2019-03-26T02:00:28.047Z,6.65
2019-03-26T02:02:59.066Z,6.51
2019-03-26T02:05:30.163Z,6.59
2019-03-26T02:08:01.225Z,6.41
2019-03-26T02:10:32.096Z,6.41
2019-03-26T02:13:03.625Z,6.54
2019-03-26T02:15:34.564Z,6.70
2019-03-26T02:18:05.518Z,6.60
2019-03-26T02:20:36.582Z,6.58
2019-03-26T02:23:07.646Z,6.50
2019-03-26T02:25:38.706Z,6.50
2019-03-26T02:28:09.800Z,6.43
2019-03-26T02:30:40.853Z,6.51
2019-03-26T02:33:11.871Z,6.51
2019-03-26T02:35:42.818Z,6.43
2019-03-26T02:38:13.675Z,6.37
2019-03-26T02:40:45.732Z,6.58
2019-03-26T02:43:16.762Z,6.56
2019-03-26T02:45:47.657Z,6.57
2019-03-26T02:48:18.641Z,6.56
2019-03-26T02:50:49.720Z,6.56
2019-03-26T02:53:20.624Z,6.61
2019-03-26T02:55:51.839Z,6.61
2019-03-26T02:58:22.655Z,6.59
2019-03-26T03:00:53.555Z,6.60
2019-03-26T03:03:24.494Z,6.54
2019-03-26T03:05:55.532Z,6.54
2019-03-26T03:08:26.639Z,6.55
2019-03-26T03:10:57.575Z,6.55
2019-03-26T03:13:28.552Z,6.58
2019-03-26T03:15:59.481Z,6.48
2019-03-26T03:18:30.412Z,6.56
2019-03-26T03:21:01.363Z,6.55
2019-03-26T03:23:32.314Z,6.50
2019-03-26T03:26:03.307Z,6.53
2019-03-26T03:28:34.402Z,6.46
2019-03-26T03:31:05.427Z,6.52
2019-03-26T03:33:36.385Z,6.61
2019-03-26T03:36:07.439Z,6.61
2019-03-26T03:38:41.292Z,6.52
2019-03-26T03:41:11.131Z,6.51
2019-03-26T03:43:42.099Z,6.53
2019-03-26T03:46:13.025Z,6.56
2019-03-26T03:48:43.946Z,6.56
2019-03-26T03:51:15.520Z,6.53
2019-03-26T03:53:46.474Z,6.52
2019-03-26T03:56:18.169Z,6.49
2019-03-26T03:58:49.122Z,6.46
2019-03-26T04:01:20.086Z,6.45
2019-03-26T04:03:51.014Z,6.50
2019-03-26T04:06:21.971Z,6.49
2019-03-26T04:08:52.826Z,6.49
2019-03-26T04:11:23.838Z,6.49
2019-03-26T04:13:54.769Z,6.52
2019-03-26T04:16:25.830Z,6.43
2019-03-26T04:18:57.898Z,6.50
2019-03-26T04:21:28.926Z,6.50
2019-03-26T04:23:59.854Z,6.60
2019-03-26T04:26:30.795Z,6.59
2019-03-26T04:29:01.733Z,6.56
2019-03-26T04:31:32.667Z,6.62
2019-03-26T04:34:04.612Z,6.57
2019-03-26T04:36:35.579Z,6.57
2019-03-26T04:39:07.950Z,6.73
2019-03-26T04:41:38.925Z,6.65
2019-03-26T04:44:09.948Z,6.73
2019-03-26T04:46:40.874Z,6.78
2019-03-26T04:49:11.821Z,6.74
2019-03-26T04:51:42.865Z,6.74
2019-03-26T04:54:13.906Z,6.60
2019-03-26T04:56:44.937Z,6.65
2019-03-26T04:59:15.829Z,6.60
2019-03-26T05:01:46.783Z,6.58
2019-03-26T05:04:17.843Z,6.67
2019-03-26T05:06:48.793Z,6.85
2019-03-26T05:09:19.672Z,7.05
2019-03-26T05:11:50.563Z,7.18
2019-03-26T05:14:21.649Z,7.48
2019-03-26T05:16:52.647Z,7.28
2019-03-26T05:19:23.596Z,7.85
2019-03-26T05:21:54.597Z,7.74
2019-03-26T05:24:25.580Z,7.29
2019-03-26T05:26:56.613Z,7.24
2019-03-26T05:29:27.553Z,7.38
2019-03-26T05:31:58.671Z,7.07
2019-03-26T05:34:29.738Z,7.07
2019-03-26T05:37:00.945Z,7.41
2019-03-26T05:39:32.030Z,7.69
2019-03-26T05:42:03.007Z,7.69
2019-03-26T05:44:34.189Z,7.59
2019-03-26T05:47:05.438Z,8.01
2019-03-26T05:49:36.657Z,8.02
2019-03-26T05:52:07.761Z,7.88
2019-03-26T05:54:39.049Z,7.88
2019-03-26T05:57:10.160Z,8.02
2019-03-26T05:59:41.295Z,8.17
2019-03-26T06:02:15.173Z,8.36
2019-03-26T06:04:45.144Z,8.11
2019-03-26T06:07:16.203Z,7.23
2019-03-26T06:09:47.366Z,7.23
2019-03-26T06:12:18.550Z,7.78
2019-03-26T06:14:49.799Z,7.69
2019-03-26T06:17:21.031Z,7.75
2019-03-26T06:19:52.101Z,8.28
2019-03-26T06:22:23.347Z,8.57
2019-03-26T06:24:54.440Z,8.60
2019-03-26T06:27:25.580Z,8.27
2019-03-26T06:29:56.727Z,8.14
2019-03-26T06:32:27.807Z,8.30
2019-03-26T06:34:59.017Z,8.36
2019-03-26T06:37:30.076Z,8.34
2019-03-26T06:40:01.122Z,8.15
2019-03-26T06:42:32.261Z,8.27
2019-03-26T06:45:04.585Z,8.52
2019-03-26T06:47:35.734Z,8.32
2019-03-26T06:50:10.591Z,8.46
2019-03-26T06:52:41.713Z,9.20
2019-03-26T06:55:12.789Z,9.23
2019-03-26T06:57:43.857Z,9.13
2019-03-26T07:00:14.980Z,8.83
2019-03-26T07:02:46.288Z,8.85
2019-03-26T07:05:17.388Z,8.92
2019-03-26T07:07:48.508Z,9.15
2019-03-26T07:10:22.901Z,9.13
2019-03-26T07:12:54.002Z,9.13
2019-03-26T07:15:24.977Z,9.13
2019-03-26T07:17:56.024Z,9.70
2019-03-26T07:20:27.013Z,9.06
2019-03-26T07:22:57.986Z,8.63
2019-03-26T07:25:28.984Z,8.51
2019-03-26T07:28:00.048Z,8.08
2019-03-26T07:30:39.679Z,8.42
2019-03-26T07:33:10.745Z,8.76
2019-03-26T07:35:41.862Z,8.83
2019-03-26T07:38:12.941Z,9.07
2019-03-26T07:40:43.976Z,9.13
2019-03-26T07:43:15.139Z,8.99
2019-03-26T07:45:46.360Z,8.91
2019-03-26T07:48:17.525Z,8.90
2019-03-26T07:50:48.620Z,9.13
2019-03-26T07:53:19.923Z,9.05
2019-03-26T07:55:51.266Z,8.81
2019-03-26T07:58:22.269Z,9.31
2019-03-26T08:00:53.397Z,9.32
2019-03-26T08:03:24.513Z,9.26
2019-03-26T08:05:55.668Z,9.46
2019-03-26T08:08:26.885Z,9.64
2019-03-26T08:10:58.080Z,9.22
2019-03-26T08:13:29.258Z,9.05
2019-03-26T08:16:00.454Z,8.90
2019-03-26T08:18:31.722Z,9.30
2019-03-26T08:21:02.860Z,9.37
2019-03-26T08:23:33.870Z,8.94
2019-03-26T08:26:04.956Z,8.91
2019-03-26T08:28:36.934Z,9.33
2019-03-26T08:31:08.167Z,9.37
2019-03-26T08:33:39.397Z,9.12
2019-03-26T08:36:10.386Z,9.17
2019-03-26T08:38:41.485Z,9.46
2019-03-26T08:41:12.526Z,9.65
2019-03-26T08:43:43.561Z,9.72
2019-03-26T08:46:14.604Z,10.17
2019-03-26T08:48:45.622Z,9.94
2019-03-26T08:51:16.687Z,9.87
2019-03-26T08:53:48.014Z,10.42
2019-03-26T08:56:19.256Z,10.12
2019-03-26T08:58:50.241Z,10.41
2019-03-26T09:01:21.301Z,10.27
2019-03-26T09:03:52.422Z,10.09
2019-03-26T09:06:23.475Z,10.23
2019-03-26T09:08:54.607Z,10.38
2019-03-26T09:11:25.710Z,10.22
2019-03-26T09:13:56.900Z,10.71
2019-03-26T09:16:28.043Z,10.57
2019-03-26T09:18:59.166Z,11.00
2019-03-26T09:21:32.582Z,11.38
2019-03-26T09:24:03.214Z,10.92
2019-03-26T09:26:34.439Z,10.43
2019-03-26T09:29:06.641Z,10.70
2019-03-26T09:31:37.669Z,11.22
2019-03-26T09:34:10.084Z,10.69
2019-03-26T09:36:41.395Z,10.04
2019-03-26T09:39:12.520Z,10.08
2019-03-26T09:41:43.565Z,10.03
2019-03-26T09:44:14.872Z,9.90
2019-03-26T09:46:46.002Z,10.26
2019-03-26T09:49:17.142Z,10.52
2019-03-26T09:51:48.367Z,10.37
2019-03-26T09:54:19.493Z,10.58
2019-03-26T09:56:50.532Z,10.53
2019-03-26T09:59:21.673Z,10.11
2019-03-26T10:01:52.934Z,10.36
2019-03-26T10:04:24.158Z,10.37
2019-03-26T10:06:55.433Z,10.09
2019-03-26T10:09:26.579Z,9.81
2019-03-26T10:11:57.993Z,9.80
2019-03-26T10:14:29.144Z,9.75
2019-03-26T10:17:00.306Z,10.13
2019-03-26T10:19:31.444Z,10.46
2019-03-26T10:22:02.666Z,10.90
2019-03-26T10:24:33.685Z,11.45
2019-03-26T10:27:04.716Z,11.03
2019-03-26T10:29:35.834Z,11.38
2019-03-26T10:32:07.033Z,11.16
2019-03-26T10:34:38.205Z,11.22
2019-03-26T10:37:09.284Z,11.13
2019-03-26T10:39:40.387Z,11.05
2019-03-26T10:42:11.513Z,10.85
2019-03-26T10:44:42.533Z,11.42
2019-03-26T10:47:13.666Z,10.47
2019-03-26T10:49:44.774Z,10.61
2019-03-26T10:52:15.920Z,10.75
2019-03-26T10:54:47.127Z,11.03
2019-03-26T10:57:18.195Z,11.21
2019-03-26T10:59:49.326Z,10.71
2019-03-26T11:02:20.394Z,10.79
2019-03-26T11:04:51.420Z,10.56
2019-03-26T11:07:22.665Z,10.66
2019-03-26T11:09:53.782Z,10.34
2019-03-26T11:12:24.899Z,10.36
2019-03-26T11:40:41.386Z,11.78
2019-03-26T11:43:12.625Z,11.48
2019-03-26T11:45:43.771Z,11.42
2019-03-26T11:48:15.079Z,11.47
2019-03-26T11:50:46.159Z,11.49
2019-03-26T11:53:17.255Z,11.35
2019-03-26T11:55:48.345Z,11.25
2019-03-26T11:58:29.960Z,11.34
2019-03-26T12:00:52.643Z,11.72
2019-03-26T12:03:23.737Z,11.09
2019-03-26T12:05:54.890Z,10.80
2019-03-26T12:08:26.111Z,11.24
2019-03-26T12:10:57.361Z,11.47
2019-03-26T12:13:28.365Z,11.52
2019-03-26T12:15:59.344Z,11.14
2019-03-26T12:18:30.454Z,11.32
2019-03-26T12:21:01.476Z,11.67
2019-03-26T12:23:32.624Z,11.66
2019-03-26T12:26:03.680Z,11.72
2019-03-26T12:28:34.730Z,11.68
2019-03-26T12:31:05.733Z,11.49
2019-03-26T12:33:36.776Z,11.52
2019-03-26T12:36:07.979Z,11.42
2019-03-26T12:38:38.929Z,11.67
2019-03-26T12:41:10.016Z,11.41
2019-03-26T12:43:41.071Z,11.66
2019-03-26T12:46:12.277Z,11.73
2019-03-26T12:48:43.365Z,11.53
2019-03-26T12:51:14.458Z,11.65
2019-03-26T12:53:45.638Z,11.70
2019-03-26T12:56:16.687Z,11.83
2019-03-26T12:58:47.820Z,11.77
2019-03-26T13:01:18.965Z,11.60
2019-03-26T13:03:49.956Z,11.64
2019-03-26T13:06:21.047Z,11.51
2019-03-26T13:08:52.097Z,11.65
2019-03-26T13:11:24.754Z,11.57
2019-03-26T13:13:55.822Z,11.56
2019-03-26T13:16:27.018Z,11.56
2019-03-26T13:18:58.324Z,11.73
2019-03-26T13:21:29.374Z,11.66
2019-03-26T13:24:00.501Z,11.68
2019-03-26T13:26:31.919Z,11.80
2019-03-26T13:29:02.910Z,11.74
2019-03-26T13:31:34.086Z,11.84
2019-03-26T13:34:05.371Z,11.70
2019-03-26T13:36:36.566Z,12.02
2019-03-26T13:39:09.007Z,11.97
2019-03-26T13:41:40.106Z,11.42
2019-03-26T13:44:11.178Z,11.15
2019-03-26T13:46:42.267Z,11.27
2019-03-26T13:49:13.289Z,11.28
2019-03-26T13:51:44.464Z,11.33
2019-03-26T13:54:15.548Z,11.38
2019-03-26T13:56:46.732Z,11.06
2019-03-26T13:59:17.839Z,11.09
2019-03-26T14:01:48.934Z,11.26
2019-03-26T14:04:20.035Z,11.29
2019-03-26T14:06:52.718Z,11.36
2019-03-26T14:09:23.823Z,11.25
2019-03-26T14:11:57.616Z,11.18
2019-03-26T14:14:27.818Z,11.16
2019-03-26T14:16:58.951Z,11.05
2019-03-26T14:19:30.072Z,11.10
2019-03-26T14:22:01.401Z,11.42
2019-03-26T14:24:32.566Z,11.51
2019-03-26T14:27:03.745Z,11.17
2019-03-26T14:29:35.084Z,11.11
2019-03-26T14:32:06.227Z,11.13
2019-03-26T14:34:37.232Z,11.06
2019-03-26T14:37:08.324Z,10.98
2019-03-26T14:39:39.490Z,11.04
2019-03-26T14:42:10.612Z,11.03
2019-03-26T14:44:41.856Z,11.07
2019-03-26T14:47:12.998Z,11.04
2019-03-26T14:49:44.116Z,11.07
2019-03-26T14:52:15.186Z,11.05
2019-03-26T14:54:46.278Z,10.99
2019-03-26T14:57:17.359Z,10.99
2019-03-26T14:59:48.699Z,10.84
2019-03-26T15:02:19.763Z,10.85
2019-03-26T15:04:51.080Z,10.79
2019-03-26T15:07:22.702Z,10.76
2019-03-26T15:09:53.816Z,10.78
2019-03-26T15:12:24.960Z,10.78
2019-03-26T15:14:57.224Z,10.86
2019-03-26T15:17:28.330Z,10.92
2019-03-26T15:19:59.550Z,10.86
2019-03-26T15:22:30.873Z,10.85
2019-03-26T15:25:02.188Z,10.82
2019-03-26T15:27:33.204Z,10.83
2019-03-26T15:30:08.868Z,10.68
2019-03-26T15:32:41.156Z,10.66
2019-03-26T15:35:12.338Z,10.68
2019-03-26T15:37:43.412Z,10.69
2019-03-26T15:40:14.565Z,10.80
2019-03-26T15:42:45.700Z,10.78
2019-03-26T15:45:16.742Z,10.78
2019-03-26T15:47:47.906Z,10.73
2019-03-26T15:50:28.200Z,10.76
2019-03-26T15:52:59.195Z,10.77
2019-03-26T15:55:30.312Z,10.63
2019-03-26T15:58:01.488Z,10.51
2019-03-26T16:00:32.969Z,10.08
2019-03-26T16:03:04.149Z,9.90
2019-03-26T16:05:35.324Z,9.66
2019-03-26T16:08:06.367Z,9.53
2019-03-26T16:10:37.411Z,9.45
2019-03-26T16:13:08.450Z,9.38
2019-03-26T16:15:44.536Z,9.31
2019-03-26T16:18:13.498Z,9.27
2019-03-26T16:20:44.604Z,9.20
2019-03-26T16:23:15.675Z,9.22
2019-03-26T16:25:46.717Z,9.02
2019-03-26T16:28:17.777Z,9.08
2019-03-26T16:30:48.778Z,8.96
2019-03-26T16:33:19.912Z,9.05
2019-03-26T16:35:50.983Z,8.89
2019-03-26T16:38:22.012Z,8.85
2019-03-26T16:40:53.082Z,8.76
2019-03-26T16:43:24.266Z,8.66
2019-03-26T16:45:55.304Z,8.73
2019-03-26T16:48:26.333Z,8.69
2019-03-26T16:50:57.511Z,8.54
2019-03-26T16:53:28.649Z,8.37
2019-03-26T16:55:59.750Z,8.27
2019-03-26T16:58:30.907Z,8.20
2019-03-26T17:01:02.093Z,8.13
2019-03-26T17:03:33.275Z,8.00
2019-03-26T17:06:04.392Z,7.96
2019-03-26T17:08:35.629Z,7.94
2019-03-26T17:11:06.710Z,7.95
2019-03-26T17:13:37.918Z,7.93
2019-03-26T17:16:09.000Z,7.82
2019-03-26T17:18:40.210Z,7.90
2019-03-26T17:21:11.324Z,7.68
2019-03-26T17:23:42.736Z,7.81
2019-03-26T17:26:15.411Z,7.85
2019-03-26T17:28:46.767Z,7.80
2019-03-26T17:31:17.922Z,7.72
2019-03-26T17:33:49.974Z,7.69
2019-03-26T17:36:21.108Z,7.72
2019-03-26T17:38:52.201Z,7.83
2019-03-26T17:41:23.296Z,7.77
2019-03-26T17:43:54.356Z,7.80
2019-03-26T17:46:25.626Z,7.68
2019-03-26T17:48:56.759Z,7.81
2019-03-26T17:51:27.921Z,7.72
2019-03-26T17:53:59.945Z,7.81
2019-03-26T17:56:31.047Z,7.84
2019-03-26T17:59:02.094Z,7.73
2019-03-26T18:01:33.267Z,7.75
2019-03-26T18:04:04.476Z,7.81
2019-03-26T18:06:35.624Z,7.88
2019-03-26T18:09:06.927Z,7.81
2019-03-26T18:11:38.146Z,7.83
2019-03-26T18:14:09.240Z,7.79
2019-03-26T18:16:40.386Z,7.71
2019-03-26T18:19:11.500Z,7.81
2019-03-26T18:21:51.367Z,7.58
2019-03-26T18:24:15.294Z,7.52
2019-03-26T18:26:46.354Z,7.67
2019-03-26T18:29:17.484Z,7.62
2019-03-26T18:31:48.571Z,7.47
2019-03-26T18:34:19.752Z,7.43
2019-03-26T18:36:50.835Z,7.41
2019-03-26T18:39:22.060Z,7.52
2019-03-26T18:41:53.337Z,7.51
2019-03-26T18:44:24.831Z,7.48
2019-03-26T18:46:56.146Z,7.51
2019-03-26T18:49:27.310Z,7.48
2019-03-26T18:51:59.635Z,7.39
2019-03-26T18:54:30.716Z,7.51
2019-03-26T18:57:01.839Z,7.47
2019-03-26T18:59:33.026Z,7.37
2019-03-26T19:02:04.241Z,7.30
2019-03-26T19:04:36.599Z,7.55
2019-03-26T19:07:07.665Z,7.32
2019-03-26T19:09:38.805Z,7.37
2019-03-26T19:12:09.776Z,7.44
2019-03-26T19:14:41.452Z,7.32
2019-03-26T19:17:12.587Z,7.27
2019-03-26T19:19:43.883Z,7.25
2019-03-26T19:22:14.997Z,7.39
2019-03-26T19:24:46.295Z,7.20
2019-03-26T19:27:17.329Z,7.13
2019-03-26T19:29:48.471Z,7.07
2019-03-26T19:32:19.798Z,7.02
2019-03-26T19:34:51.171Z,7.16
2019-03-26T19:37:22.469Z,7.24
2019-03-26T19:39:53.840Z,7.00
2019-03-26T19:42:25.040Z,7.19
2019-03-26T19:44:56.218Z,7.41
2019-03-26T19:47:27.535Z,7.28
2019-03-26T19:49:58.780Z,7.08
2019-03-26T19:52:30.096Z,7.24
2019-03-26T19:55:01.522Z,7.22
2019-03-26T19:57:32.728Z,7.21
2019-03-26T20:00:05.639Z,7.14
2019-03-26T20:02:36.911Z,7.27
2019-03-26T20:05:08.598Z,7.15
2019-03-26T20:07:39.896Z,7.15
2019-03-26T20:10:11.383Z,6.96
2019-03-26T20:12:42.568Z,6.84
2019-03-26T20:15:13.858Z,6.86
2019-03-26T20:17:44.906Z,6.97
2019-03-26T20:20:17.648Z,7.01
2019-03-26T20:22:48.849Z,6.88
2019-03-26T20:25:20.015Z,6.76
2019-03-26T20:27:51.198Z,6.73
2019-03-26T20:30:22.275Z,6.70
2019-03-26T20:32:53.318Z,6.65
2019-03-26T20:35:24.418Z,6.68
2019-03-26T20:37:56.090Z,6.66
2019-03-26T20:40:27.112Z,6.61
2019-03-26T20:42:58.351Z,6.53
2019-03-26T20:45:29.776Z,6.59
2019-03-26T20:48:01.086Z,6.63
2019-03-26T20:50:32.270Z,6.64
2019-03-26T20:53:03.455Z,6.64
2019-03-26T20:55:35.149Z,6.51
2019-03-26T20:58:06.240Z,6.42
2019-03-26T21:00:39.882Z,6.35
2019-03-26T21:03:11.096Z,6.26
2019-03-26T21:05:42.230Z,6.26
2019-03-26T21:08:13.396Z,6.27
2019-03-26T21:10:44.579Z,6.27
2019-03-26T21:13:15.665Z,6.23
2019-03-26T21:15:56.690Z,6.23
2019-03-26T21:18:19.591Z,6.25
2019-03-26T21:20:51.163Z,6.36
2019-03-26T21:23:23.364Z,6.31
2019-03-26T21:25:54.558Z,6.05
2019-03-26T21:28:25.631Z,5.99
2019-03-26T21:30:56.593Z,6.00
2019-03-26T21:33:27.603Z,5.97
2019-03-26T21:35:58.673Z,5.97
2019-03-26T21:38:29.807Z,5.96
2019-03-26T21:41:00.926Z,5.96
2019-03-26T21:43:32.643Z,5.95
2019-03-26T21:46:03.620Z,5.94
2019-03-26T21:48:34.767Z,5.97
2019-03-26T21:51:07.905Z,6.00
2019-03-26T21:53:39.053Z,5.82
2019-03-26T21:56:10.134Z,5.83
2019-03-26T21:58:41.232Z,5.82
2019-03-26T22:01:12.367Z,5.78
2019-03-26T22:03:43.460Z,5.76
2019-03-26T22:06:14.604Z,5.79
2019-03-26T22:08:45.676Z,5.79
2019-03-26T22:11:16.796Z,5.74
2019-03-26T22:13:47.780Z,5.76
2019-03-26T22:16:18.890Z,5.64
2019-03-26T22:18:49.930Z,5.64
2019-03-26T22:21:20.948Z,5.61
2019-03-26T22:23:52.128Z,5.61
2019-03-26T22:26:23.235Z,5.67
2019-03-26T22:28:54.241Z,5.63
2019-03-26T22:31:25.325Z,5.47
2019-03-26T22:33:56.292Z,5.48
2019-03-26T22:36:27.310Z,5.48
2019-03-26T22:38:58.350Z,5.42
2019-03-26T22:41:29.318Z,5.40
2019-03-26T22:44:00.331Z,5.47
2019-03-26T22:46:31.313Z,5.32
2019-03-26T22:49:02.303Z,5.33
2019-03-26T22:51:33.350Z,5.33
2019-03-26T22:54:04.392Z,5.11
2019-03-26T22:56:35.440Z,5.18
2019-03-26T22:59:06.476Z,5.14
2019-03-26T23:01:37.687Z,5.10
2019-03-26T23:04:08.755Z,5.04
2019-03-26T23:06:39.807Z,4.99
2019-03-26T23:09:10.851Z,5.03
2019-03-26T23:11:41.993Z,4.88
2019-03-26T23:14:13.037Z,4.98
2019-03-26T23:16:44.253Z,4.87
2019-03-26T23:19:15.303Z,4.83
2019-03-26T23:21:46.839Z,4.99
2019-03-26T23:24:17.921Z,4.93
2019-03-26T23:26:48.884Z,4.83
2019-03-26T23:29:19.995Z,4.84
2019-03-26T23:31:51.142Z,4.80
2019-03-26T23:34:22.295Z,4.84
2019-03-26T23:36:54.041Z,4.69
2019-03-26T23:39:25.090Z,4.64
2019-03-26T23:41:56.130Z,4.59
2019-03-26T23:44:28.121Z,4.58
2019-03-26T23:46:59.230Z,4.50
2019-03-26T23:49:30.274Z,4.46
2019-03-26T23:52:01.323Z,4.35
2019-03-26T23:54:32.481Z,4.33
2019-03-26T23:57:03.501Z,4.33
2019-03-26T23:59:34.611Z,4.28
